Theoreme — FAA9539 — position and weather

sailwx.info

Track history (hours):
 
Tides and Currents Weather Stations Pressure Air Temp Water Temp Dewpoint Dewpoint Depression Visibility Wind Speed Wind Dir Waves Ship Positions

Theoreme

Last reported at 2018-May-10 07:36 UTC. Time now 2018-Jun-21 10:12 UTC.
Position N 46°09' W 001°10'.
Warning: this ship's position is 42 days out of date.

Length 14 m.

Type: Pleasure craft. MMSI: 227173460.

Date/timePositionNaut miles runAvg speedWind from/ knotsBaromVisibWave heightAir tempDewpointWater temp
2018-May-10 07:36N 46°09' W 001°10'0 0.0
2018-May-10 07:30N 46°09' W 001°10'0 0.0
2018-May-10 07:00N 46°09' W 001°10'0 0.0
2018-May-10 06:30N 46°09' W 001°10'0 0.0
2018-May-10 06:00N 46°09' W 001°10'0 0.0
2018-May-10 05:30N 46°09' W 001°10'0 0.0
2018-May-10 05:00N 46°09' W 001°10'0 0.0
2018-May-10 04:30N 46°09' W 001°10'0 0.0
2018-May-10 04:00N 46°09' W 001°10'0 0.0
2018-May-10 03:30N 46°09' W 001°10'0 0.0
2018-May-10 03:00N 46°09' W 001°10'0 0.0
2018-May-10 02:30N 46°09' W 001°10'0 0.0
2018-May-10 02:00N 46°09' W 001°10'0 0.0
2018-May-10 01:30N 46°09' W 001°10'0 0.0
2018-May-10 01:00N 46°09' W 001°10'0 0.0
2018-May-10 00:30N 46°09' W 001°10'0 0.0
2018-May-10 00:00N 46°09' W 001°10'0 0.0
2018-May-09 23:30N 46°09' W 001°10'0 0.0
2018-May-09 23:00N 46°09' W 001°10'0 0.0
2018-May-09 22:30N 46°09' W 001°10'0 0.0
2018-May-09 22:00N 46°09' W 001°10'0 0.0
2018-May-09 21:30N 46°09' W 001°10'0 0.0
2018-May-09 21:00N 46°09' W 001°10'0 0.0
2018-May-09 20:30N 46°09' W 001°10'0 0.0
2018-May-09 20:00N 46°09' W 001°10'0 0.0
2018-May-09 19:30N 46°09' W 001°10'0 0.0
2018-May-09 19:00N 46°09' W 001°10'0 0.0
2018-May-09 18:30N 46°09' W 001°10'0 0.2
2018-May-09 18:00N 46°09' W 001°10'2 3.1
2018-May-09 17:30N 46°09' W 001°12'3 5.8
2018-May-09 17:00N 46°10' W 001°15'4 7.0
2018-May-09 16:30N 46°13' W 001°19'3 6.5
2018-May-09 16:00N 46°15' W 001°22'13 5.3
2018-May-09 13:31N 46°22' W 001°39'1 4.6
2018-May-09 13:20N 46°22' W 001°40'1 4.5
2018-May-09 13:01N 46°23' W 001°41'2 4.7
2018-May-09 12:30N 46°25' W 001°44'3 5.4
2018-May-09 12:00N 46°26' W 001°47'3 6.4
2018-May-09 11:30N 46°28' W 001°51'3 6.1
2018-May-09 11:00N 46°30' W 001°54'4 0.2
2018-May-08 06:48N 46°33' W 001°60'2 4.8
2018-May-08 06:28N 46°32' W 001°58'2 5.3
2018-May-08 06:00N 46°30' W 001°55'3 5.0
2018-May-08 05:30N 46°29' W 001°52'3 5.4
2018-May-08 05:00N 46°29' W 001°48'2 3.1
2018-May-08 04:30N 46°30' W 001°48'0 0.0
2018-May-08 04:00N 46°30' W 001°48'0 0.0
2018-May-08 03:30N 46°30' W 001°48'0 0.0
2018-May-08 03:00N 46°30' W 001°48'0 0.0
2018-May-08 02:30N 46°30' W 001°48'0 0.0
2018-May-08 02:00N 46°30' W 001°48'0 0.0
2018-May-08 01:30N 46°30' W 001°48'0 0.0
2018-May-08 01:00N 46°30' W 001°48'0 0.0
2018-May-08 00:30N 46°30' W 001°48'0 0.0
2018-May-08 00:00N 46°30' W 001°48'0 0.0
2018-May-07 23:30N 46°30' W 001°48'0 0.0
2018-May-07 23:00N 46°30' W 001°48'0 0.0
2018-May-07 22:30N 46°30' W 001°48'0 0.0
2018-May-07 22:00N 46°30' W 001°48'0 0.0
2018-May-07 21:31N 46°30' W 001°48'0 0.0
2018-May-07 21:01N 46°30' W 001°48'0 0.0
2018-May-07 20:31N 46°30' W 001°48'0 0.0
2018-May-07 20:00N 46°30' W 001°48'0 0.0
2018-May-07 19:31N 46°30' W 001°48'0 0.0
2018-May-07 19:01N 46°30' W 001°48'0 0.1
2018-May-07 18:30N 46°30' W 001°48'0 0.2
2018-May-07 18:01N 46°30' W 001°48'3 5.8
2018-May-07 17:30N 46°28' W 001°45'3 6.6
2018-May-07 17:00N 46°25' W 001°42'14 4.4
2018-May-07 13:44N 46°17' W 001°24'1 5.5
2018-May-07 13:30N 46°16' W 001°23'3 5.8
2018-May-07 13:00N 46°14' W 001°21'2 3.5
2018-May-07 12:30N 46°14' W 001°18'2 3.8
2018-May-07 11:59N 46°14' W 001°16'3 5.9
2018-May-07 11:30N 46°11' W 001°14'2 4.5
2018-May-07 10:58N 46°09' W 001°14'1 2.9
2018-May-07 10:29N 46°08' W 001°13'1 1.5
2018-May-07 10:00N 46°08' W 001°12'1 2.3
2018-May-07 09:31N 46°09' W 001°11'  
2018-Apr-30 12:22N 46°09' W 001°10'0 0.0
2018-Apr-30 11:58N 46°09' W 001°10'0 0.0
2018-Apr-30 11:28N 46°09' W 001°10'0 0.0
2018-Apr-30 10:58N 46°09' W 001°10'0 0.0
2018-Apr-30 10:28N 46°09' W 001°10'0 0.0
2018-Apr-30 09:58N 46°09' W 001°10'0 0.0
2018-Apr-30 09:28N 46°09' W 001°10'0 0.0
2018-Apr-30 08:58N 46°09' W 001°10'0 0.0
2018-Apr-30 08:28N 46°09' W 001°10'0 0.0
2018-Apr-30 07:58N 46°09' W 001°10'  
Track history (hours):
 
Tides and Currents Weather Stations Pressure Air Temp Water Temp Dewpoint Dewpoint Depression Visibility Wind Speed Wind Dir Waves Ship Positions

Theoreme

Last reported at 2018-May-10 07:36 UTC. Time now 2018-Jun-21 10:12 UTC.
Position N 46°09' W 001°10'.
Warning: this ship's position is 42 days out of date.

Length 14 m.

Type: Pleasure craft. MMSI: 227173460.

Date/timePositionNaut miles runAvg speedWind from/ knotsBaromVisibWave heightAir tempDewpointWater temp
2018-May-10 07:36N 46°09' W 001°10'0 0.0
2018-May-10 07:30N 46°09' W 001°10'0 0.0
2018-May-10 07:00N 46°09' W 001°10'0 0.0
2018-May-10 06:30N 46°09' W 001°10'0 0.0
2018-May-10 06:00N 46°09' W 001°10'0 0.0
2018-May-10 05:30N 46°09' W 001°10'0 0.0
2018-May-10 05:00N 46°09' W 001°10'0 0.0
2018-May-10 04:30N 46°09' W 001°10'0 0.0
2018-May-10 04:00N 46°09' W 001°10'0 0.0
2018-May-10 03:30N 46°09' W 001°10'0 0.0
2018-May-10 03:00N 46°09' W 001°10'0 0.0
2018-May-10 02:30N 46°09' W 001°10'0 0.0
2018-May-10 02:00N 46°09' W 001°10'0 0.0
2018-May-10 01:30N 46°09' W 001°10'0 0.0
2018-May-10 01:00N 46°09' W 001°10'0 0.0
2018-May-10 00:30N 46°09' W 001°10'0 0.0
2018-May-10 00:00N 46°09' W 001°10'0 0.0
2018-May-09 23:30N 46°09' W 001°10'0 0.0
2018-May-09 23:00N 46°09' W 001°10'0 0.0
2018-May-09 22:30N 46°09' W 001°10'0 0.0
2018-May-09 22:00N 46°09' W 001°10'0 0.0
2018-May-09 21:30N 46°09' W 001°10'0 0.0
2018-May-09 21:00N 46°09' W 001°10'0 0.0
2018-May-09 20:30N 46°09' W 001°10'0 0.0
2018-May-09 20:00N 46°09' W 001°10'0 0.0
2018-May-09 19:30N 46°09' W 001°10'0 0.0
2018-May-09 19:00N 46°09' W 001°10'0 0.0
2018-May-09 18:30N 46°09' W 001°10'0 0.2
2018-May-09 18:00N 46°09' W 001°10'2 3.1
2018-May-09 17:30N 46°09' W 001°12'3 5.8
2018-May-09 17:00N 46°10' W 001°15'4 7.0
2018-May-09 16:30N 46°13' W 001°19'3 6.5
2018-May-09 16:00N 46°15' W 001°22'13 5.3
2018-May-09 13:31N 46°22' W 001°39'1 4.6
2018-May-09 13:20N 46°22' W 001°40'1 4.5
2018-May-09 13:01N 46°23' W 001°41'2 4.7
2018-May-09 12:30N 46°25' W 001°44'3 5.4
2018-May-09 12:00N 46°26' W 001°47'3 6.4
2018-May-09 11:30N 46°28' W 001°51'3 6.1
2018-May-09 11:00N 46°30' W 001°54'4 0.2
2018-May-08 06:48N 46°33' W 001°60'2 4.8
2018-May-08 06:28N 46°32' W 001°58'2 5.3
2018-May-08 06:00N 46°30' W 001°55'3 5.0
2018-May-08 05:30N 46°29' W 001°52'3 5.4
2018-May-08 05:00N 46°29' W 001°48'2 3.1
2018-May-08 04:30N 46°30' W 001°48'0 0.0
2018-May-08 04:00N 46°30' W 001°48'0 0.0
2018-May-08 03:30N 46°30' W 001°48'0 0.0
2018-May-08 03:00N 46°30' W 001°48'0 0.0
2018-May-08 02:30N 46°30' W 001°48'0 0.0
2018-May-08 02:00N 46°30' W 001°48'0 0.0
2018-May-08 01:30N 46°30' W 001°48'0 0.0
2018-May-08 01:00N 46°30' W 001°48'0 0.0
2018-May-08 00:30N 46°30' W 001°48'0 0.0
2018-May-08 00:00N 46°30' W 001°48'0 0.0
2018-May-07 23:30N 46°30' W 001°48'0 0.0
2018-May-07 23:00N 46°30' W 001°48'0 0.0
2018-May-07 22:30N 46°30' W 001°48'0 0.0
2018-May-07 22:00N 46°30' W 001°48'0 0.0
2018-May-07 21:31N 46°30' W 001°48'0 0.0
2018-May-07 21:01N 46°30' W 001°48'0 0.0
2018-May-07 20:31N 46°30' W 001°48'0 0.0
2018-May-07 20:00N 46°30' W 001°48'0 0.0
2018-May-07 19:31N 46°30' W 001°48'0 0.0
2018-May-07 19:01N 46°30' W 001°48'0 0.1
2018-May-07 18:30N 46°30' W 001°48'0 0.2
2018-May-07 18:01N 46°30' W 001°48'3 5.8
2018-May-07 17:30N 46°28' W 001°45'3 6.6
2018-May-07 17:00N 46°25' W 001°42'14 4.4
2018-May-07 13:44N 46°17' W 001°24'1 5.5
2018-May-07 13:30N 46°16' W 001°23'3 5.8
2018-May-07 13:00N 46°14' W 001°21'2 3.5
2018-May-07 12:30N 46°14' W 001°18'2 3.8
2018-May-07 11:59N 46°14' W 001°16'3 5.9
2018-May-07 11:30N 46°11' W 001°14'2 4.5
2018-May-07 10:58N 46°09' W 001°14'1 2.9
2018-May-07 10:29N 46°08' W 001°13'1 1.5
2018-May-07 10:00N 46°08' W 001°12'1 2.3
2018-May-07 09:31N 46°09' W 001°11'  
2018-Apr-30 12:22N 46°09' W 001°10'0 0.0
2018-Apr-30 11:58N 46°09' W 001°10'0 0.0
2018-Apr-30 11:28N 46°09' W 001°10'0 0.0
2018-Apr-30 10:58N 46°09' W 001°10'0 0.0
2018-Apr-30 10:28N 46°09' W 001°10'0 0.0
2018-Apr-30 09:58N 46°09' W 001°10'0 0.0
2018-Apr-30 09:28N 46°09' W 001°10'0 0.0
2018-Apr-30 08:58N 46°09' W 001°10'0 0.0
2018-Apr-30 08:28N 46°09' W 001°10'0 0.0
2018-Apr-30 07:58N 46°09' W 001°10'  

Dump ship's entire track history